Time;durP1;ratioP1;P1;durP2;ratioP2;P2;SDS_P1;SDS_P2;PMS_P1;PMS_P2;Temp;Humidity;BMP_temperature;BMP_pressure;BME280_temperature;BME280_humidity;BME280_pressure;Samples;Min_cycle;Max_cycle;Signal;HPM_P1;HPM_P2
2024/01/13 00:01:54;;;;;;;5.55;4.00;;;;;;;4.26;79.28;102168.91;5005912;28;20537;-86
2024/01/13 00:04:20;;;;;;;6.25;4.20;;;;;;;4.12;79.22;102127.78;4997694;28;20077;-85
2024/01/13 00:06:45;;;;;;;5.38;3.88;;;;;;;4.01;79.30;102113.78;5027596;28;20030;-86
2024/01/13 00:09:11;;;;;;;6.57;4.30;;;;;;;4.10;79.19;102130.22;5012318;28;20026;-87
2024/01/13 00:11:37;;;;;;;7.60;4.70;;;;;;;4.07;79.42;102133.41;5013325;28;20151;-86
2024/01/13 00:14:03;;;;;;;5.72;3.92;;;;;;;4.04;79.51;102116.66;5013201;28;20515;-86
2024/01/13 00:16:29;;;;;;;6.55;4.40;;;;;;;4.36;79.21;102181.06;4978644;28;20029;-87
2024/01/13 00:18:55;;;;;;;5.90;4.00;;;;;;;4.23;79.16;102161.75;5012218;28;20064;-88
2024/01/13 00:21:21;;;;;;;7.25;4.50;;;;;;;3.68;79.24;102057.88;4997022;28;20037;-87
2024/01/13 00:23:46;;;;;;;6.47;4.13;;;;;;;3.71;79.39;102063.38;5016183;28;20121;-87
2024/01/13 00:26:12;;;;;;;6.68;4.40;;;;;;;3.99;79.30;102118.78;5028837;28;20079;-87
2024/01/13 00:28:40;;;;;;;6.18;4.07;;;;;;;4.10;79.31;102137.97;5011878;28;20108;-87
2024/01/13 00:31:06;;;;;;;6.30;4.30;;;;;;;4.30;79.74;102168.44;5029337;28;20025;-86
2024/01/13 00:33:32;;;;;;;7.78;4.38;;;;;;;4.19;78.97;102144.09;4992568;28;20030;-87
2024/01/13 00:35:58;;;;;;;6.32;4.05;;;;;;;4.35;79.34;102177.56;5009265;28;20111;-87
2024/01/13 00:38:24;;;;;;;6.78;4.50;;;;;;;4.26;79.42;102161.13;5014966;28;20021;-87
2024/01/13 00:40:50;;;;;;;5.18;3.72;;;;;;;4.12;79.58;102132.97;5008859;28;20434;-87
2024/01/13 00:43:17;;;;;;;6.00;4.10;;;;;;;4.02;79.16;102108.78;5014804;28;20029;-87
2024/01/13 00:45:43;;;;;;;5.88;3.95;;;;;;;4.03;79.23;102114.84;5014025;28;20590;-87
2024/01/13 00:48:09;;;;;;;5.50;3.88;;;;;;;4.18;79.40;102142.25;5005864;28;20022;-87
2024/01/13 00:50:35;;;;;;;5.63;3.83;;;;;;;3.96;79.42;102096.88;5023036;28;20084;-87
2024/01/13 00:53:01;;;;;;;5.55;3.92;;;;;;;3.93;79.21;102097.47;4999245;28;20033;-87
2024/01/13 00:55:26;;;;;;;5.85;3.90;;;;;;;3.95;79.12;102092.47;5014418;28;20080;-87
2024/01/13 00:57:53;;;;;;;5.53;4.20;;;;;;;3.79;78.90;102072.84;5026842;28;20034;-87
2024/01/13 01:00:19;;;;;;;5.63;3.67;;;;;;;4.09;78.96;102120.66;5018207;28;20033;-87
2024/01/13 01:02:44;;;;;;;6.22;3.75;;;;;;;3.94;78.96;102073.47;5014578;28;20041;-86
2024/01/13 01:05:10;;;;;;;7.25;4.47;;;;;;;4.41;78.71;102164.38;5024187;28;20042;-84
2024/01/13 01:07:36;;;;;;;5.97;3.97;;;;;;;4.19;78.98;102136.34;4999707;28;20117;-86
2024/01/13 01:10:01;;;;;;;5.63;3.53;;;;;;;3.97;79.17;102097.03;5010933;28;20038;-86
2024/01/13 01:12:28;;;;;;;4.80;3.70;;;;;;;4.15;79.51;102133.25;5024621;28;20044;-86
2024/01/13 01:14:54;;;;;;;5.60;3.80;;;;;;;4.21;78.92;102134.81;5012213;28;20506;-86
2024/01/13 01:17:19;;;;;;;;;;;;;;;4.35;79.21;102154.31;5023780;28;20078;-85
2024/01/13 01:19:45;;;;;;;5.15;3.60;;;;;;;4.33;79.25;102153.22;5028613;28;20318;-86
2024/01/13 01:22:11;;;;;;;5.93;3.70;;;;;;;3.93;79.32;102083.66;5025972;28;20119;-86
2024/01/13 01:24:36;;;;;;;5.47;3.95;;;;;;;3.96;79.67;102083.94;5021242;28;20164;-87
2024/01/13 01:27:02;;;;;;;4.43;3.25;;;;;;;4.02;79.29;102088.09;5011793;28;20037;-87
2024/01/13 01:29:27;;;;;;;6.57;4.20;;;;;;;4.35;79.24;102148.22;5014414;28;20116;-87
2024/01/13 01:31:53;;;;;;;5.53;3.95;;;;;;;3.78;79.09;102039.09;5006642;28;20030;-86
2024/01/13 01:34:19;;;;;;;6.05;3.53;;;;;;;3.84;78.82;102047.47;5007854;28;20029;-87
2024/01/13 01:36:44;;;;;;;5.40;3.85;;;;;;;4.29;79.28;102140.75;5029115;28;20740;-87
2024/01/13 01:39:10;;;;;;;5.28;3.83;;;;;;;4.19;79.10;102101.78;5003239;28;20045;-87
2024/01/13 01:41:36;;;;;;;6.82;4.18;;;;;;;4.00;79.21;102073.16;4995481;28;20037;-87
2024/01/13 01:44:01;;;;;;;5.32;3.70;;;;;;;4.06;78.77;102058.28;5015020;28;20120;-86
2024/01/13 01:46:30;;;;;;;5.22;3.60;;;;;;;4.04;79.19;102073.66;5002429;28;20034;-86
2024/01/13 01:48:58;;;;;;;5.68;3.90;;;;;;;4.08;79.04;102072.28;5006017;28;20072;-85
2024/01/13 01:51:25;;;;;;;5.28;3.72;;;;;;;4.05;79.29;102065.13;5037816;28;20049;-86
2024/01/13 01:53:50;;;;;;;5.55;3.90;;;;;;;3.93;79.36;102056.13;5017248;28;20168;-85
2024/01/13 01:56:22;;;;;;;5.43;3.63;;;;;;;4.31;79.13;102113.38;5036700;28;20100;-87
2024/01/13 01:58:50;;;;;;;6.25;3.80;;;;;;;4.39;78.74;102120.22;5020491;28;20052;-84
2024/01/13 02:01:17;;;;;;;5.22;3.42;;;;;;;3.91;78.94;102049.00;5022543;28;20030;-84
2024/01/13 02:03:43;;;;;;;5.30;3.78;;;;;;;4.22;79.50;102118.53;5001848;28;20021;-85
2024/01/13 02:06:09;;;;;;;6.80;3.85;;;;;;;4.11;78.77;102072.59;5016665;28;20036;-85
2024/01/13 02:08:36;;;;;;;5.75;3.83;;;;;;;4.42;78.45;102117.97;5014149;28;20033;-85
2024/01/13 02:11:02;;;;;;;6.30;3.80;;;;;;;4.02;78.99;102059.66;5016797;28;20052;-86
2024/01/13 02:13:28;;;;;;;6.18;3.63;;;;;;;3.99;78.99;102068.78;5027641;28;20167;-86
2024/01/13 02:15:56;;;;;;;6.00;3.65;;;;;;;4.16;79.23;102101.50;5010209;28;20045;-86
2024/01/13 02:18:21;;;;;;;4.80;3.20;;;;;;;4.04;79.24;102071.06;5021745;28;20033;-87
2024/01/13 02:20:49;;;;;;;5.30;3.50;;;;;;;3.93;79.40;102053.53;4998278;28;20041;-88
2024/01/13 02:23:16;;;;;;;4.32;3.30;;;;;;;4.24;79.25;102096.34;5027190;28;20026;-89
2024/01/13 02:25:41;;;;;;;6.00;3.70;;;;;;;4.10;79.07;102054.34;5031010;28;20036;-86
2024/01/13 02:28:07;;;;;;;4.55;3.40;;;;;;;4.05;78.79;102054.78;5015365;28;20017;-88
2024/01/13 02:30:34;;;;;;;4.65;3.10;;;;;;;4.08;78.77;102043.84;4992757;28;20139;-86
2024/01/13 02:32:59;;;;;;;5.88;3.85;;;;;;;3.97;78.97;102039.28;5031393;28;20041;-86
2024/01/13 02:35:25;;;;;;;5.85;3.80;;;;;;;4.13;79.27;102084.00;4997701;28;20042;-87
2024/01/13 02:37:50;;;;;;;5.78;3.67;;;;;;;4.22;79.45;102097.84;5001942;28;20121;-85
2024/01/13 02:40:16;;;;;;;4.82;3.38;;;;;;;4.21;78.81;102057.25;5024317;28;20036;-87
2024/01/13 02:42:42;;;;;;;4.70;3.50;;;;;;;4.00;78.83;102043.09;4999760;28;20037;-87
2024/01/13 02:45:08;;;;;;;6.63;3.85;;;;;;;4.22;78.91;102069.41;5016699;28;20060;-87
2024/01/13 02:47:40;;;;;;;5.88;3.78;;;;;;;3.62;79.14;101990.09;5017839;28;20410;-87
2024/01/13 02:50:07;;;;;;;5.50;3.47;;;;;;;3.80;78.74;102015.22;5027061;28;20026;-86
2024/01/13 02:52:32;;;;;;;;;;;;;;;4.20;79.16;102101.94;4999330;28;20070;-87
2024/01/13 02:54:59;;;;;;;5.55;3.35;;;;;;;3.79;79.19;102009.88;5004944;28;20032;-86
2024/01/13 02:57:25;;;;;;;5.32;3.40;;;;;;;3.74;79.36;102008.53;4988934;28;20022;-86
2024/01/13 02:59:51;;;;;;;4.88;3.35;;;;;;;3.88;79.40;102047.00;4996499;28;20029;-86
2024/01/13 03:02:17;;;;;;;5.00;3.38;;;;;;;3.77;79.07;102024.34;5029002;28;20040;-86
2024/01/13 03:04:43;;;;;;;5.57;3.63;;;;;;;4.16;79.34;102092.06;5017504;28;20493;-85
2024/01/13 03:07:09;;;;;;;4.70;3.40;;;;;;;3.90;79.32;102042.00;4998595;28;20025;-87
2024/01/13 03:09:34;;;;;;;4.60;3.40;;;;;;;4.14;79.01;102061.66;5015445;28;20033;-87
2024/01/13 03:12:03;;;;;;;5.45;3.55;;;;;;;4.25;79.03;102089.47;5011278;28;20030;-86
2024/01/13 03:14:30;;;;;;;5.32;3.70;;;;;;;4.09;78.88;102068.94;4980346;28;20491;-87
2024/01/13 03:16:55;;;;;;;5.00;3.40;;;;;;;4.19;79.15;102094.03;5017575;28;20112;-87
2024/01/13 03:19:21;;;;;;;5.20;3.28;;;;;;;3.94;79.08;102031.22;5005440;28;20133;-86
2024/01/13 03:21:47;;;;;;;4.68;3.53;;;;;;;3.93;79.02;102032.88;5007636;28;20491;-88
2024/01/13 03:24:12;;;;;;;5.70;3.50;;;;;;;3.82;79.18;102025.72;5024947;28;20091;-87
2024/01/13 03:26:39;;;;;;;5.53;3.70;;;;;;;4.18;79.01;102085.38;5018890;28;20072;-87
2024/01/13 03:29:05;;;;;;;5.63;3.30;;;;;;;4.21;78.87;102088.28;5028700;28;20100;-88
2024/01/13 03:31:31;;;;;;;5.30;3.58;;;;;;;4.10;78.96;102067.25;4997770;28;20030;-88
2024/01/13 03:33:57;;;;;;;4.18;3.15;;;;;;;3.62;79.22;101996.22;5007464;28;20060;-87
2024/01/13 03:36:23;;;;;;;6.05;3.67;;;;;;;3.47;79.37;101972.31;5011927;28;20030;-87
2024/01/13 03:38:49;;;;;;;5.78;3.35;;;;;;;3.62;79.06;101988.47;5030015;28;20485;-87
2024/01/13 03:41:18;;;;;;;4.43;3.30;;;;;;;3.74;79.21;102000.78;4997113;28;20060;-87
2024/01/13 03:43:44;;;;;;;4.22;3.00;;;;;;;3.85;79.30;102036.34;5013372;28;20066;-86
2024/01/13 03:46:10;;;;;;;5.32;3.83;;;;;;;3.71;79.47;102011.72;5026632;28;20029;-86
2024/01/13 03:48:36;;;;;;;4.65;3.33;;;;;;;4.07;79.03;102060.13;5021344;28;20068;-89
2024/01/13 03:51:05;;;;;;;5.18;3.28;;;;;;;3.87;79.16;102034.84;4996650;28;20045;-86
2024/01/13 03:53:31;;;;;;;4.30;3.30;;;;;;;4.02;79.21;102053.56;5004202;28;20053;-87
2024/01/13 03:55:58;;;;;;;;;;;;;;;4.15;79.37;102076.38;5011969;28;20034;-87
2024/01/13 03:58:30;;;;;;;4.45;3.20;;;;;;;3.97;79.21;102059.94;4990929;28;19921;-87
2024/01/13 04:00:57;;;;;;;4.72;3.30;;;;;;;4.05;79.08;102077.16;5010450;28;20034;-88
2024/01/13 04:03:24;;;;;;;5.22;3.38;;;;;;;3.34;79.56;101937.34;5003261;28;20507;-86
2024/01/13 04:05:50;;;;;;;5.28;3.63;;;;;;;3.90;79.56;102035.16;5010315;28;20109;-87
2024/01/13 04:08:17;;;;;;;5.07;3.22;;;;;;;3.41;79.07;101934.63;5010245;28;20054;-88
2024/01/13 04:10:42;;;;;;;4.55;3.28;;;;;;;3.85;79.38;102032.13;5009882;28;20088;-86
2024/01/13 04:13:12;;;;;;;3.70;2.95;;;;;;;3.64;79.32;101986.00;5006794;28;20030;-88
2024/01/13 04:15:38;;;;;;;5.25;3.25;;;;;;;3.47;79.04;101937.81;5001594;28;20475;-87
2024/01/13 04:18:07;;;;;;;4.63;3.20;;;;;;;3.52;79.13;101940.88;4990204;28;20484;-86
2024/01/13 04:20:33;;;;;;;4.50;3.38;;;;;;;3.76;78.98;101996.69;4982672;28;20121;-87
2024/01/13 04:22:59;;;;;;;4.75;3.33;;;;;;;3.54;78.70;101955.78;5010490;28;20113;-87
2024/01/13 04:25:24;;;;;;;5.40;3.20;;;;;;;3.79;79.26;102002.13;4990463;28;20499;-88
2024/01/13 04:27:54;;;;;;;4.15;3.03;;;;;;;3.96;79.38;102042.59;4991742;28;20045;-88
2024/01/13 04:30:20;;;;;;;4.85;3.30;;;;;;;3.24;79.37;101918.34;5008781;28;20030;-86
2024/01/13 04:32:46;;;;;;;4.38;3.42;;;;;;;3.56;79.16;101980.09;4993237;28;20041;-86
2024/01/13 04:35:13;;;;;;;5.20;3.33;;;;;;;3.85;79.18;102023.44;4993222;28;20554;-88
2024/01/13 04:37:39;;;;;;;5.03;3.28;;;;;;;4.07;78.95;102058.44;5010059;28;20030;-86
2024/01/13 04:40:05;;;;;;;4.22;3.30;;;;;;;3.91;79.24;102029.22;5007282;28;20037;-86
2024/01/13 04:42:34;;;;;;;;;;;;;;;4.16;78.94;102067.88;5009614;28;20826;-86
2024/01/13 04:45:00;;;;;;;4.55;2.97;;;;;;;3.88;78.76;102016.91;4993834;28;19918;-86
2024/01/13 04:47:26;;;;;;;5.10;3.35;;;;;;;3.95;79.00;102033.94;4995302;28;20523;-86
2024/01/13 04:49:52;;;;;;;4.90;3.20;;;;;;;3.96;79.03;102034.84;5002361;28;20038;-86
2024/01/13 04:52:18;;;;;;;5.07;3.08;;;;;;;3.88;79.16;102016.91;5006335;28;20576;-87
2024/01/13 04:54:43;;;;;;;3.53;3.00;;;;;;;4.06;79.30;102048.88;4993939;28;20065;-86
2024/01/13 04:57:10;;;;;;;3.58;2.90;;;;;;;3.58;79.44;101970.81;4989948;28;20034;-87
2024/01/13 04:59:36;;;;;;;4.18;3.20;;;;;;;4.07;79.41;102053.28;4993406;28;20030;-86
2024/01/13 05:02:01;;;;;;;5.15;3.30;;;;;;;4.13;78.74;102042.66;5006663;28;20571;-85
2024/01/13 05:04:27;;;;;;;5.35;3.63;;;;;;;3.71;78.85;101987.56;5006018;28;20034;-84
2024/01/13 05:06:53;;;;;;;4.40;3.03;;;;;;;3.98;79.42;102031.69;5002467;28;20578;-84
2024/01/13 05:09:18;;;;;;;5.78;3.45;;;;;;;3.91;79.11;102018.88;4991576;28;20026;-84
2024/01/13 05:11:44;;;;;;;4.45;3.08;;;;;;;3.92;79.48;102019.81;5005947;28;20116;-84
2024/01/13 05:14:10;;;;;;;4.50;3.20;;;;;;;4.08;78.93;102029.25;5005186;28;20127;-84
2024/01/13 05:16:35;;;;;;;3.53;2.83;;;;;;;4.16;79.02;102042.94;5008571;28;20113;-84
2024/01/13 05:19:02;;;;;;;5.05;3.03;;;;;;;3.76;78.87;101969.16;5010084;28;20466;-83
2024/01/13 05:21:27;;;;;;;4.53;3.38;;;;;;;3.79;79.28;101994.38;4999317;28;20030;-89
2024/01/13 05:23:53;;;;;;;5.03;3.25;;;;;;;3.82;79.04;101992.13;5011867;28;20072;-87
2024/01/13 05:26:19;;;;;;;3.83;2.85;;;;;;;3.56;79.07;101954.25;5011812;28;20022;-86
2024/01/13 05:28:48;;;;;;;4.75;2.97;;;;;;;3.93;79.32;102009.63;5005655;28;21615;-87
2024/01/13 05:31:14;;;;;;;5.07;3.45;;;;;;;3.51;78.49;101928.72;4993418;28;20037;-87
2024/01/13 05:33:40;;;;;;;4.40;3.15;;;;;;;3.75;79.19;101975.09;5006997;28;20037;-89
2024/01/13 05:36:07;;;;;;;5.30;3.47;;;;;;;3.78;79.29;101979.66;5010695;28;20467;-90
2024/01/13 05:38:34;;;;;;;4.03;3.28;;;;;;;3.73;78.94;101963.69;5004362;28;20034;-88
2024/01/13 05:41:00;;;;;;;4.60;3.10;;;;;;;3.80;79.20;101983.31;4996793;28;20495;-89
2024/01/13 05:43:26;;;;;;;4.50;3.03;;;;;;;4.12;78.84;102022.72;4992833;28;20033;-86
2024/01/13 05:45:52;;;;;;;4.97;3.50;;;;;;;4.05;79.03;102023.78;5010883;28;20100;-87
2024/01/13 05:48:18;;;;;;;;;;;;;;;4.09;79.30;102027.59;5026779;28;20034;-87
2024/01/13 05:50:44;;;;;;;4.25;2.72;;;;;;;3.71;78.72;101957.47;5009850;28;19917;-87
2024/01/13 05:53:11;;;;;;;4.80;3.00;;;;;;;4.05;78.92;102026.34;4997502;28;20044;-88
2024/01/13 05:55:37;;;;;;;5.00;3.20;;;;;;;3.96;78.84;102016.75;5026688;28;20491;-87
2024/01/13 05:58:03;;;;;;;4.03;3.33;;;;;;;3.79;78.74;101978.88;5031854;28;20031;-87
2024/01/13 06:00:30;;;;;;;5.25;3.20;;;;;;;3.95;78.63;102009.78;5012017;28;20063;-88
2024/01/13 06:02:57;;;;;;;4.68;3.05;;;;;;;3.93;79.23;102019.94;5019031;28;20484;-87
2024/01/13 06:05:23;;;;;;;4.50;3.42;;;;;;;3.97;78.90;102000.50;5006123;28;20092;-88
2024/01/13 06:07:49;;;;;;;4.07;2.95;;;;;;;3.84;78.71;101988.03;5014211;28;20025;-87
2024/01/13 06:10:17;;;;;;;4.22;3.08;;;;;;;3.79;79.31;101991.81;5019807;28;20488;-87
2024/01/13 06:12:45;;;;;;;4.03;3.05;;;;;;;3.83;79.06;101994.88;5030756;28;20099;-88
2024/01/13 06:15:11;;;;;;;4.57;3.33;;;;;;;3.82;78.98;101999.88;4998446;28;20414;-88
2024/01/13 06:17:37;;;;;;;5.18;3.20;;;;;;;3.95;79.16;102022.69;5013155;28;20038;-86
2024/01/13 06:20:03;;;;;;;4.15;3.47;;;;;;;3.65;78.77;101977.50;5020105;28;20076;-88
2024/01/13 06:22:29;;;;;;;6.07;3.50;;;;;;;3.64;78.79;101968.84;5012507;28;20534;-88
2024/01/13 06:24:54;;;;;;;5.63;3.55;;;;;;;3.65;78.93;101956.84;5010078;28;20033;-87
2024/01/13 06:27:20;;;;;;;5.45;3.47;;;;;;;3.58;78.27;101937.25;4996226;28;20502;-88
2024/01/13 06:29:46;;;;;;;4.60;3.45;;;;;;;3.92;78.66;102014.66;5013741;28;20060;-87
2024/01/13 06:32:14;;;;;;;5.03;3.30;;;;;;;3.92;79.06;102025.88;5013818;28;20072;-87
2024/01/13 06:34:40;;;;;;;5.75;3.38;;;;;;;3.62;79.49;101988.47;5022451;28;20037;-86
2024/01/13 06:37:06;;;;;;;5.43;3.33;;;;;;;3.55;79.27;101974.75;5002533;28;20033;-87
2024/01/13 06:39:31;;;;;;;4.72;3.33;;;;;;;3.52;78.96;101954.69;5013895;28;20029;-87
2024/01/13 06:41:58;;;;;;;5.25;2.90;;;;;;;3.79;78.86;102002.13;4998545;28;20122;-89
2024/01/13 06:44:25;;;;;;;4.38;3.42;;;;;;;3.95;79.46;102044.28;4996416;28;20059;-90
2024/01/13 06:46:51;;;;;;;5.03;3.17;;;;;;;3.77;79.42;102017.50;5011704;28;20110;-87
2024/01/13 06:49:16;;;;;;;6.05;3.70;;;;;;;3.85;78.94;102023.44;4996904;28;20077;-88
2024/01/13 06:51:42;;;;;;;5.32;3.63;;;;;;;3.75;78.70;101982.84;5008829;28;20050;-88
2024/01/13 06:54:09;;;;;;;5.70;3.63;;;;;;;3.91;78.74;102044.72;5002996;28;20034;-88
2024/01/13 06:56:36;;;;;;;4.90;3.28;;;;;;;3.78;79.17;102031.34;5004827;28;20392;-88
2024/01/13 06:59:02;;;;;;;5.05;3.40;;;;;;;3.46;79.29;101972.16;4992652;28;20042;-88
2024/01/13 07:01:30;;;;;;;5.32;3.47;;;;;;;3.90;79.58;102054.94;5005973;28;20042;-89
2024/01/13 07:03:56;;;;;;;5.18;3.70;;;;;;;3.67;79.31;102019.91;5018427;28;20519;-89
2024/01/13 07:06:21;;;;;;;4.68;3.33;;;;;;;3.50;79.03;101989.78;4999403;28;20038;-88
2024/01/13 07:08:47;;;;;;;5.95;3.60;;;;;;;3.64;78.69;101999.84;5027813;28;20411;-89
2024/01/13 07:11:13;;;;;;;5.00;3.47;;;;;;;3.83;78.17;102017.19;5000119;28;20022;-88
2024/01/13 07:13:43;;;;;;;5.55;3.60;;;;;;;3.75;79.02;102012.94;4999731;28;20038;-88
2024/01/13 07:16:10;;;;;;;5.90;3.90;;;;;;;3.63;79.02;101987.69;5009762;28;20034;-86
2024/01/13 07:18:35;;;;;;;6.60;3.83;;;;;;;3.74;78.97;102019.75;5006847;28;20084;-86
2024/01/13 07:21:01;;;;;;;5.88;4.07;;;;;;;3.81;79.21;102031.63;5008804;28;20432;-87
2024/01/13 07:23:29;;;;;;;6.13;3.95;;;;;;;3.71;78.83;102001.38;5008883;28;20044;-86
2024/01/13 07:25:55;;;;;;;6.82;4.10;;;;;;;3.93;79.04;102047.47;5004143;28;20068;-86
2024/01/13 07:28:24;;;;;;;5.68;3.58;;;;;;;3.87;79.19;102042.59;5008806;28;20554;-86
2024/01/13 07:30:53;;;;;;;6.20;4.05;;;;;;;3.56;79.08;101977.50;5009562;28;20032;-87
2024/01/13 07:33:19;;;;;;;4.78;3.92;;;;;;;3.45;79.11;101967.72;5021142;28;20069;-87
2024/01/13 07:35:45;;;;;;;5.55;3.83;;;;;;;3.42;78.99;101963.16;4987368;28;20501;-86
2024/01/13 07:38:10;;;;;;;5.90;3.92;;;;;;;3.52;78.80;101965.03;5000918;28;20500;-86
2024/01/13 07:40:37;;;;;;;6.68;4.00;;;;;;;3.22;78.55;101911.22;5009874;28;20462;-86
2024/01/13 07:43:03;;;;;;;6.50;4.25;;;;;;;3.57;78.94;101989.63;5008273;28;20495;-86
2024/01/13 07:45:28;;;;;;;6.25;4.38;;;;;;;3.87;79.35;102053.88;5006877;28;20045;-87
2024/01/13 07:47:54;;;;;;;7.28;4.28;;;;;;;3.70;79.01;102007.28;4991629;28;20030;-87
2024/01/13 07:50:20;;;;;;;8.23;5.00;;;;;;;3.78;79.50;102006.41;5001150;28;20030;-86
2024/01/13 07:52:45;;;;;;;7.32;4.60;;;;;;;3.33;78.80;101933.84;5003398;28;20497;-86
2024/01/13 07:55:11;;;;;;;9.70;5.03;;;;;;;3.73;79.34;102005.03;4983269;28;20038;-86
2024/01/13 07:57:37;;;;;;;8.50;4.78;;;;;;;3.51;79.22;101968.34;4986812;28;20041;-88
2024/01/13 08:00:03;;;;;;;7.93;4.90;;;;;;;3.33;78.68;101928.69;4985932;28;20034;-86
2024/01/13 08:02:30;;;;;;;8.05;4.97;;;;;;;3.64;79.29;101979.19;4991946;28;20045;-87
2024/01/13 08:04:56;;;;;;;9.93;5.30;;;;;;;3.73;79.13;101999.88;4993046;28;20636;-87
2024/01/13 08:07:25;;;;;;;9.10;5.13;;;;;;;3.74;78.17;101962.94;4987547;28;20062;-87
2024/01/13 08:09:51;;;;;;;9.15;5.10;;;;;;;3.33;78.82;101915.78;4986739;28;20144;-86
2024/01/13 08:12:16;;;;;;;9.45;5.40;;;;;;;3.84;78.84;102004.44;5003524;28;20109;-87
2024/01/13 08:14:42;;;;;;;9.25;5.22;;;;;;;3.42;78.84;101929.59;5007632;28;20491;-87
2024/01/13 08:17:08;;;;;;;8.65;4.95;;;;;;;3.76;78.37;101968.25;5007003;28;20061;-86
2024/01/13 08:19:36;;;;;;;10.75;5.57;;;;;;;3.63;78.67;101979.94;5001765;28;20036;-88
2024/01/13 08:22:03;;;;;;;10.43;5.70;;;;;;;3.63;78.32;101929.94;5008434;28;20034;-87
2024/01/13 08:24:30;;;;;;;10.60;5.97;;;;;;;3.97;77.61;101980.72;5007371;28;20049;-87
2024/01/13 08:26:56;;;;;;;11.30;5.80;;;;;;;4.07;77.84;102017.09;5008570;28;20030;-85
2024/01/13 08:29:22;;;;;;;11.00;6.07;;;;;;;3.84;78.05;101982.88;5002607;28;20038;-86
2024/01/13 08:31:49;;;;;;;11.98;5.93;;;;;;;3.41;78.25;101925.22;5007779;28;20411;-86
2024/01/13 08:34:15;;;;;;;9.43;5.63;;;;;;;3.40;78.62;101922.47;4997470;28;20022;-88
2024/01/13 08:36:41;;;;;;;11.25;6.15;;;;;;;3.84;79.07;101998.38;4983637;28;20036;-86
2024/01/13 08:39:07;;;;;;;10.82;5.57;;;;;;;3.79;78.31;101981.47;5005502;28;20033;-87
2024/01/13 08:41:33;;;;;;;9.77;5.72;;;;;;;3.92;78.58;101987.13;4997822;28;20125;-87
2024/01/13 08:43:59;;;;;;;10.68;5.85;;;;;;;3.53;78.27;101924.63;4990060;28;20115;-86
2024/01/13 08:46:26;;;;;;;11.55;5.97;;;;;;;3.60;78.69;101930.56;5007030;28;20491;-86
2024/01/13 08:48:52;;;;;;;10.23;5.80;;;;;;;3.79;78.16;101947.88;4999834;28;20124;-87
2024/01/13 08:51:18;;;;;;;11.48;6.35;;;;;;;3.28;78.30;101865.38;5002813;28;20042;-87
2024/01/13 08:53:47;;;;;;;11.65;6.60;;;;;;;3.78;78.26;101970.22;4998991;28;20113;-87
2024/01/13 08:56:14;;;;;;;15.20;7.55;;;;;;;3.54;78.44;101929.94;4989532;28;20093;-87
2024/01/13 08:58:41;;;;;;;12.63;6.70;;;;;;;3.62;78.01;101939.38;4991745;28;20423;-87
2024/01/13 09:01:07;;;;;;;12.80;6.78;;;;;;;3.22;78.59;101873.41;5006513;28;20038;-87
2024/01/13 09:03:33;;;;;;;15.38;7.55;;;;;;;3.36;78.39;101890.25;4987272;28;20030;-87
2024/01/13 09:06:00;;;;;;;14.48;7.55;;;;;;;3.20;78.29;101849.09;4988437;28;20550;-87
2024/01/13 09:08:25;;;;;;;12.90;7.03;;;;;;;3.63;78.22;101919.63;5004246;28;20444;-86
2024/01/13 09:10:55;;;;;;;13.68;7.55;;;;;;;3.68;77.63;101895.16;5007626;28;20037;-86
2024/01/13 09:13:21;;;;;;;13.45;6.93;;;;;;;3.55;77.57;101861.13;4988095;28;20042;-86
2024/01/13 09:15:47;;;;;;;14.10;7.13;;;;;;;3.69;77.56;101883.16;4999530;28;20030;-88
2024/01/13 09:18:13;;;;;;;13.55;7.05;;;;;;;3.67;78.08;101899.41;4994539;28;20133;-87
2024/01/13 09:20:39;;;;;;;12.75;7.25;;;;;;;3.31;78.58;101851.84;4995228;28;20038;-87
2024/01/13 09:23:05;;;;;;;13.77;7.20;;;;;;;3.51;78.28;101883.13;5007556;28;20484;-87
2024/01/13 09:25:31;;;;;;;16.23;7.15;;;;;;;3.35;78.72;101841.97;5009290;28;20034;-88
2024/01/13 09:27:56;;;;;;;15.90;7.22;;;;;;;3.49;77.60;101825.25;4979996;28;20487;-87
2024/01/13 09:30:22;;;;;;;16.75;7.72;;;;;;;3.38;78.28;101831.03;5006495;28;20478;-87
2024/01/13 09:32:49;;;;;;;13.77;7.35;;;;;;;3.76;77.83;101888.16;4991580;28;20127;-88
2024/01/13 09:35:15;;;;;;;14.02;7.45;;;;;;;3.53;77.69;101818.72;5006846;28;20514;-88
2024/01/13 09:37:43;;;;;;;14.38;7.68;;;;;;;3.60;78.02;101853.06;5008947;28;20030;-86
2024/01/13 09:40:10;;;;;;;14.68;7.20;;;;;;;4.16;78.08;101929.19;5008573;28;20041;-86
2024/01/13 09:42:50;;;;;;;15.65;7.80;;;;;;;4.20;77.35;101922.66;5004522;28;20462;-86
2024/01/13 09:45:16;;;;;;;16.83;8.10;;;;;;;3.72;77.67;101868.84;5005720;28;20038;-84
2024/01/13 09:47:43;;;;;;;;;;;;;;;3.94;78.26;101925.28;4994828;28;20042;-87
2024/01/13 09:50:09;;;;;;;14.57;7.32;;;;;;;3.65;77.71;101833.78;5001288;28;19926;-86
2024/01/13 09:52:35;;;;;;;14.55;7.45;;;;;;;3.74;78.07;101846.66;5023088;28;20435;-86
2024/01/13 09:55:04;;;;;;;14.02;7.50;;;;;;;3.71;77.37;101815.38;4988027;28;20038;-87
2024/01/13 09:57:29;;;;;;;18.52;7.78;;;;;;;3.83;77.25;101836.31;4993485;28;20033;-87
2024/01/13 09:59:55;;;;;;;14.73;7.90;;;;;;;3.60;77.03;101800.53;5006497;28;20145;-87
2024/01/13 10:02:21;;;;;;;14.75;7.70;;;;;;;3.65;77.21;101804.44;5012398;28;20491;-85
2024/01/13 10:04:46;;;;;;;16.58;7.97;;;;;;;3.97;77.43;101866.13;5023589;28;20034;-86
2024/01/13 10:07:15;;;;;;;15.38;7.82;;;;;;;3.87;77.31;101828.13;5028296;28;20527;-86
2024/01/13 10:09:42;;;;;;;15.30;7.90;;;;;;;3.51;76.97;101789.25;4993369;28;20033;-87
2024/01/13 10:12:08;;;;;;;18.52;8.65;;;;;;;3.77;77.77;101848.66;5027867;28;20566;-86
2024/01/13 10:14:40;;;;;;;15.27;8.38;;;;;;;3.82;77.99;101861.25;5003826;28;20118;-84
2024/01/13 10:17:06;;;;;;;15.43;8.43;;;;;;;3.59;77.79;101812.50;5012149;28;20041;-85
2024/01/13 10:19:39;;;;;;;18.17;8.82;;;;;;;3.64;77.62;101815.53;5008734;28;20034;-87
2024/01/13 10:22:05;;;;;;;19.48;8.60;;;;;;;3.77;77.39;101805.66;5007854;28;20092;-87
2024/01/13 10:24:31;;;;;;;15.55;8.90;;;;;;;3.76;77.57;101798.66;5012356;28;20104;-87
2024/01/13 10:26:58;;;;;;;17.25;8.52;;;;;;;3.73;77.88;101794.88;5009750;28;20547;-87
2024/01/13 10:29:23;;;;;;;;;;;;;;;4.00;78.37;101858.66;4977995;28;20411;-86
2024/01/13 10:31:50;;;;;;;16.17;8.63;;;;;;;3.96;77.92;101838.44;4995560;28;19917;-86
2024/01/13 10:34:19;;;;;;;16.05;8.18;;;;;;;3.65;78.29;101796.69;4992269;28;20550;-88
2024/01/13 10:36:45;;;;;;;19.20;8.82;;;;;;;3.94;78.09;101838.31;4995041;28;20040;-84
2024/01/13 10:39:12;;;;;;;17.38;8.82;;;;;;;3.82;77.37;101799.25;5012325;28;20026;-85
2024/01/13 10:41:50;;;;;;;15.98;7.90;;;;;;;3.60;77.82;101775.59;5004127;28;20423;-87
2024/01/13 10:44:16;;;;;;;15.35;8.23;;;;;;;3.74;77.50;101799.28;5010325;28;20487;-85
2024/01/13 10:46:43;;;;;;;;;;;;;;;3.99;77.97;101846.50;5005272;28;20045;-85
2024/01/13 10:49:13;;;;;;;16.30;8.23;;;;;;;4.00;77.81;101844.09;5002958;28;19925;-86
2024/01/13 10:51:39;;;;;;;18.33;8.77;;;;;;;4.24;77.07;101852.38;5007332;28;20439;-87
2024/01/13 10:54:07;;;;;;;17.55;9.38;;;;;;;3.91;76.80;101782.81;5005710;28;20027;-88
2024/01/13 10:56:35;;;;;;;17.80;8.63;;;;;;;4.17;77.25;101850.88;5004568;28;20045;-87
2024/01/13 10:59:02;;;;;;;19.02;8.90;;;;;;;3.85;77.16;101783.13;5021775;28;20555;-86
2024/01/13 11:01:27;;;;;;;16.10;8.38;;;;;;;4.01;77.99;101837.22;5000917;28;20031;-89
2024/01/13 11:03:54;;;;;;;16.80;8.68;;;;;;;3.47;77.99;101738.97;5005518;28;20034;-89
2024/01/13 11:06:23;;;;;;;15.45;8.40;;;;;;;4.08;77.97;101844.81;5005835;28;20494;-86
2024/01/13 11:08:51;;;;;;;14.77;8.00;;;;;;;4.12;78.07;101843.44;5000841;28;20534;-86
2024/01/13 11:11:31;;;;;;;17.95;9.10;;;;;;;3.86;77.89;101800.47;5003341;28;20030;-90
2024/01/13 11:14:23;;;;;;;16.55;8.65;;;;;;;4.09;78.03;101831.13;4991243;28;20057;-87
2024/01/13 11:16:50;;;;;;;16.48;8.95;;;;;;;4.20;77.68;101822.72;5002304;28;20048;-88
2024/01/13 11:19:16;;;;;;;18.55;8.82;;;;;;;4.05;77.15;101783.41;5006124;28;20549;-86
2024/01/13 11:21:48;;;;;;;16.02;8.52;;;;;;;3.42;77.29;101704.06;5004447;28;20030;-87
2024/01/13 11:24:17;;;;;;;16.67;9.02;;;;;;;3.53;77.50;101731.84;4990303;28;20036;-87
2024/01/13 11:26:48;;;;;;;17.38;8.73;;;;;;;3.81;77.90;101776.78;4986792;28;20034;-86
2024/01/13 11:29:25;;;;;;;18.27;9.10;;;;;;;3.85;77.79;101762.47;5006601;28;20034;-86
2024/01/13 11:31:53;;;;;;;;;;;;;;;4.24;77.75;101808.44;5006034;28;20499;-86